Página principal
METAR-TAF:

METAR-TAF

Aeroportos :

Aeroporto Internacional de Nova Orleães Louis Armstrong

Nova Orleães, Luisiana, Estados Unidos

latitude: 29-59-34N, longitude: 090-15-03W, altura: 1 m

Observação actual do tempo

O boletim foi feito há 30 minutos, às 05:53 UTC
Vento calmo
Temperatura 7°C
Humidade 93%
Pressão 1023 hPa
Visibilidade: 16.1 km
Poucas nuvensa uma altura de 25000 ft

METAR: KMSY 170553Z 00000KT 10SM FEW250 07/06 A3022 RMK AO2 SLP236 T00720056 10128 20072 401780028 50000

Hora: 00:23 (06:23 UTC)

Previsão

O boletim foi feito há 40 minutos, às 05:43 UTC
Previsão válida de 17 às 06 UTC a 18 às 12 UTC
Vento kt de norte
Visibilidade: 10 km
Céu limpo

TAF: KMSY 170543Z 1706/1812 00000KT P6SM SKC

Observações e previsões do tempo de mais de 4000 aeroportos (mensagens METAR e TAF).

As estações disponíveis são os pontos amarelos e vermelhos sobre o mapa.

Mova o rato sobre o mapa para ver o nome da estação.

Depois clique no ponto para visualizar as observações e previsões meteorológicas.

Para alterar o mapa : clique nos botões verdes com uma cruz preta para aumentar o zoom; no botão verde com uma pitada de zoom; ou nas setas verdes para mapas adjacentes.


METAR-TAF: